createdAt,value
2018-05-14T00:02:02.604Z,92.60
2018-05-14T00:04:30.156Z,92.60
2018-05-14T00:06:57.724Z,92.60
2018-05-14T00:09:25.297Z,92.90
2018-05-14T00:11:52.756Z,93.00
2018-05-14T00:14:20.304Z,93.00
2018-05-14T00:16:47.861Z,93.20
2018-05-14T00:19:15.329Z,92.90
2018-05-14T00:21:42.881Z,92.90
2018-05-14T00:24:10.357Z,93.30
2018-05-14T00:26:38.609Z,92.90
2018-05-14T00:29:06.173Z,92.80
2018-05-14T00:31:33.637Z,92.70
2018-05-14T00:34:01.914Z,92.70
2018-05-14T00:36:29.472Z,92.70
2018-05-14T00:38:57.033Z,92.70
2018-05-14T00:41:24.589Z,92.40
2018-05-14T00:43:52.153Z,92.40
2018-05-14T00:46:19.712Z,92.50
2018-05-14T00:48:48.050Z,93.00
2018-05-14T00:51:15.523Z,93.00
2018-05-14T00:53:43.004Z,93.00
2018-05-14T00:56:11.245Z,92.90
2018-05-14T00:58:38.704Z,92.80
2018-05-14T01:01:06.165Z,92.70
2018-05-14T01:03:33.645Z,92.80
2018-05-14T01:06:01.125Z,92.80
2018-05-14T01:08:28.683Z,92.90
2018-05-14T01:10:56.240Z,92.80
2018-05-14T01:13:23.800Z,92.90
2018-05-14T01:15:51.268Z,92.90
2018-05-14T01:18:18.738Z,92.80
2018-05-14T01:20:46.973Z,92.70
2018-05-14T01:23:14.439Z,92.70
2018-05-14T01:25:42.009Z,92.60
2018-05-14T01:28:09.704Z,92.80
2018-05-14T01:30:37.088Z,93.00
2018-05-14T01:33:05.409Z,93.00
2018-05-14T01:35:32.884Z,93.00
2018-05-14T01:38:01.148Z,93.10
2018-05-14T01:40:28.628Z,93.10
2018-05-14T01:42:56.875Z,92.90
2018-05-14T01:45:24.342Z,92.90
2018-05-14T01:47:51.812Z,92.80
2018-05-14T01:50:20.077Z,92.90
2018-05-14T01:52:47.637Z,92.50
2018-05-14T01:55:15.868Z,92.70
2018-05-14T01:57:43.361Z,92.70
2018-05-14T02:00:10.929Z,92.50
2018-05-14T02:02:38.392Z,92.40
2018-05-14T02:05:05.861Z,92.70
2018-05-14T02:07:33.395Z,92.70
2018-05-14T02:10:00.965Z,92.70
2018-05-14T02:12:28.433Z,92.60
2018-05-14T02:14:55.980Z,92.40
2018-05-14T02:17:23.544Z,92.50
2018-05-14T02:19:51.097Z,92.40
2018-05-14T02:22:18.664Z,92.50
2018-05-14T02:24:46.225Z,92.60
2018-05-14T02:27:13.785Z,92.70
2018-05-14T02:29:41.340Z,92.80
2018-05-14T02:32:09.573Z,92.80
2018-05-14T02:34:37.042Z,92.70
2018-05-14T02:37:04.496Z,92.60
2018-05-14T02:39:32.056Z,92.60
2018-05-14T02:41:59.509Z,92.90
2018-05-14T02:44:26.975Z,92.80
2018-05-14T02:46:54.568Z,93.00
2018-05-14T02:49:22.136Z,93.00
2018-05-14T02:51:49.711Z,93.00
2018-05-14T02:54:17.269Z,93.10
2018-05-14T02:56:44.729Z,93.10
2018-05-14T02:59:12.273Z,93.00
2018-05-14T03:01:39.862Z,93.10
2018-05-14T03:04:08.089Z,93.50
2018-05-14T03:06:35.556Z,93.10
2018-05-14T03:09:03.017Z,93.10
2018-05-14T03:11:30.489Z,92.90
2018-05-14T03:13:57.967Z,93.00
2018-05-14T03:16:26.195Z,92.70
2018-05-14T03:18:53.648Z,92.70
2018-05-14T03:21:21.138Z,92.60
2018-05-14T03:23:48.596Z,92.60
2018-05-14T03:26:16.157Z,92.50
2018-05-14T03:28:43.718Z,92.50
2018-05-14T03:31:11.190Z,92.50
2018-05-14T03:33:38.736Z,92.50
2018-05-14T03:36:06.201Z,92.60
2018-05-14T03:38:33.752Z,92.50
2018-05-14T03:41:01.217Z,92.50
2018-05-14T03:43:28.765Z,92.40
2018-05-14T03:45:56.328Z,92.50
2018-05-14T03:48:23.811Z,92.40
2018-05-14T03:50:51.273Z,92.40
2018-05-14T03:53:19.501Z,92.50
2018-05-14T03:55:46.982Z,92.50
2018-05-14T03:58:26.321Z,92.60
2018-05-14T04:01:06.535Z,92.50
2018-05-14T04:03:45.804Z,92.50
2018-05-14T04:06:25.277Z,92.60
2018-05-14T04:08:53.521Z,92.70
2018-05-14T04:11:21.080Z,92.60
2018-05-14T04:13:49.369Z,92.60
2018-05-14T04:16:16.857Z,92.70
2018-05-14T04:18:45.101Z,92.40
2018-05-14T04:21:13.344Z,92.30
2018-05-14T04:23:40.836Z,92.30
2018-05-14T04:26:08.401Z,92.30
2018-05-14T04:28:35.865Z,92.50
2018-05-14T04:31:03.329Z,92.70
2018-05-14T04:33:31.649Z,92.30
2018-05-14T04:35:59.149Z,92.00
2018-05-14T04:38:26.713Z,92.00
2018-05-14T04:40:54.264Z,91.90
2018-05-14T04:43:21.734Z,92.00
2018-05-14T04:45:49.202Z,91.80
2018-05-14T04:48:16.745Z,91.60
2018-05-14T04:50:44.220Z,91.90
2018-05-14T04:53:12.453Z,92.00
2018-05-14T04:55:39.944Z,91.70
2018-05-14T04:58:07.500Z,91.80
2018-05-14T05:00:35.061Z,91.90
2018-05-14T05:03:02.524Z,91.90
2018-05-14T05:05:30.760Z,91.70
2018-05-14T05:07:58.261Z,91.70
2018-05-14T05:10:25.912Z,91.70
2018-05-14T05:12:53.276Z,91.70
2018-05-14T05:15:20.837Z,91.40
2018-05-14T05:17:48.309Z,91.50
2018-05-14T05:20:15.773Z,91.50
2018-05-14T05:22:44.062Z,91.20
2018-05-14T05:25:11.486Z,91.20
2018-05-14T05:27:38.953Z,91.30
2018-05-14T05:30:06.508Z,91.20
2018-05-14T05:32:34.065Z,91.70
2018-05-14T05:35:01.625Z,91.20
2018-05-14T05:37:29.092Z,91.30
2018-05-14T05:39:56.549Z,90.90
2018-05-14T05:42:24.019Z,90.60
2018-05-14T05:44:52.281Z,90.90
2018-05-14T05:47:19.837Z,90.60
2018-05-14T05:49:47.317Z,90.20
2018-05-14T05:52:15.557Z,90.40
2018-05-14T05:54:43.135Z,90.40
2018-05-14T05:57:10.687Z,90.50
2018-05-14T05:59:38.253Z,90.80
2018-05-14T06:02:05.713Z,89.50
2018-05-14T06:04:33.274Z,89.90
2018-05-14T06:07:00.745Z,89.20
2018-05-14T06:09:28.317Z,89.00
2018-05-14T06:11:55.849Z,89.00
2018-05-14T06:14:23.318Z,88.50
2018-05-14T06:16:50.871Z,88.20
2018-05-14T06:19:19.144Z,88.10
2018-05-14T06:21:46.660Z,88.00
2018-05-14T06:24:14.121Z,88.10
2018-05-14T06:26:41.679Z,88.00
2018-05-14T06:29:09.146Z,88.20
2018-05-14T06:31:36.851Z,86.90
2018-05-14T06:34:04.164Z,87.20
2018-05-14T06:36:31.724Z,85.70
2018-05-14T06:38:59.217Z,85.50
2018-05-14T06:41:26.776Z,85.50
2018-05-14T06:43:54.249Z,85.20
2018-05-14T06:46:21.712Z,84.60
2018-05-14T06:48:49.176Z,84.20
2018-05-14T06:51:17.399Z,83.60
2018-05-14T06:53:44.893Z,83.60
2018-05-14T06:56:12.454Z,83.20
2018-05-14T06:58:40.021Z,82.00
2018-05-14T07:01:07.565Z,82.30
2018-05-14T07:03:35.030Z,80.90
2018-05-14T07:06:02.585Z,80.30
2018-05-14T07:08:30.061Z,80.40
2018-05-14T07:10:57.605Z,80.90
2018-05-14T07:13:25.080Z,80.60
2018-05-14T07:15:52.548Z,79.90
2018-05-14T07:18:20.778Z,79.20
2018-05-14T07:20:48.249Z,79.20
2018-05-14T07:23:15.816Z,77.80
2018-05-14T07:25:43.276Z,78.30
2018-05-14T07:28:10.841Z,77.60
2018-05-14T07:30:38.393Z,77.90
2018-05-14T07:33:05.861Z,78.00
2018-05-14T07:35:33.413Z,77.90
2018-05-14T07:38:00.874Z,76.80
2018-05-14T07:40:28.507Z,77.60
2018-05-14T07:42:56.769Z,77.20
2018-05-14T07:45:24.269Z,77.20
2018-05-14T07:47:51.738Z,77.70
2018-05-14T07:50:19.200Z,75.40
2018-05-14T07:52:46.746Z,75.60
2018-05-14T07:55:14.222Z,75.90
2018-05-14T07:57:41.720Z,76.70
2018-05-14T08:00:09.224Z,77.00
2018-05-14T08:02:36.742Z,76.20
2018-05-14T08:05:04.250Z,77.10
2018-05-14T08:07:31.860Z,77.60
2018-05-14T08:09:59.360Z,77.10
2018-05-14T08:12:26.879Z,77.50
2018-05-14T08:14:54.386Z,78.20
2018-05-14T08:17:21.944Z,78.60
2018-05-14T08:19:49.417Z,79.00
2018-05-14T08:22:16.958Z,79.30
2018-05-14T08:24:44.525Z,79.80
2018-05-14T08:27:12.804Z,79.30
2018-05-14T08:29:40.273Z,79.20
2018-05-14T08:32:07.995Z,78.90
2018-05-14T08:34:35.372Z,78.10
2018-05-14T08:37:02.882Z,78.30
2018-05-14T08:39:30.300Z,77.70
2018-05-14T08:41:57.768Z,77.00
2018-05-14T08:44:25.997Z,75.40
2018-05-14T08:46:53.641Z,74.60
2018-05-14T08:49:21.145Z,73.60
2018-05-14T08:51:48.713Z,72.70
2018-05-14T08:54:16.394Z,73.20
2018-05-14T08:56:43.821Z,74.00
2018-05-14T08:59:11.388Z,73.20
2018-05-14T09:01:38.957Z,73.30
2018-05-14T09:04:06.508Z,74.10
2018-05-14T09:06:34.143Z,73.10
2018-05-14T09:09:02.245Z,73.10
2018-05-14T09:11:29.708Z,73.10
2018-05-14T09:13:57.177Z,72.30
2018-05-14T09:16:24.716Z,71.80
2018-05-14T09:18:52.277Z,71.40
2018-05-14T09:21:19.749Z,69.60
2018-05-14T09:23:47.320Z,70.10
2018-05-14T09:26:15.572Z,69.90
2018-05-14T09:28:43.045Z,69.80
2018-05-14T09:31:10.613Z,70.20
2018-05-14T09:33:38.152Z,68.90
2018-05-14T09:36:05.621Z,68.30
2018-05-14T09:38:33.089Z,67.70
2018-05-14T09:41:01.337Z,68.20
2018-05-14T09:43:28.797Z,67.90
2018-05-14T09:45:56.373Z,67.80
2018-05-14T09:48:23.852Z,68.90
2018-05-14T09:50:52.084Z,68.70
2018-05-14T09:53:19.779Z,68.70
2018-05-14T09:55:47.034Z,66.20
2018-05-14T09:58:14.497Z,65.10
2018-05-14T10:00:42.761Z,63.70
2018-05-14T10:03:10.312Z,63.50
2018-05-14T10:05:37.876Z,62.40
2018-05-14T10:08:05.437Z,63.10
2018-05-14T10:10:32.915Z,62.00
2018-05-14T10:13:00.379Z,62.90
2018-05-14T10:15:28.609Z,63.90
2018-05-14T10:17:56.091Z,63.80
2018-05-14T10:20:25.712Z,64.60
2018-05-14T10:22:53.261Z,64.10
2018-05-14T10:25:20.721Z,64.70
2018-05-14T10:27:48.273Z,64.60
2018-05-14T10:30:16.504Z,63.90
2018-05-14T10:32:43.972Z,63.80
2018-05-14T10:35:11.469Z,64.20
2018-05-14T10:37:39.020Z,63.70
2018-05-14T10:40:06.489Z,63.80
2018-05-14T10:42:34.104Z,62.30
2018-05-14T10:45:01.605Z,63.00
2018-05-14T10:47:29.169Z,63.80
2018-05-14T10:49:56.627Z,62.60
2018-05-14T10:52:24.096Z,63.20
2018-05-14T10:54:51.564Z,63.50
2018-05-14T10:57:19.799Z,63.50
2018-05-14T10:59:47.264Z,63.50
2018-05-14T11:02:14.833Z,63.80
2018-05-14T11:04:42.388Z,64.10
2018-05-14T11:07:09.853Z,64.20
2018-05-14T11:09:37.425Z,63.70
2018-05-14T11:12:04.893Z,62.80
2018-05-14T11:14:33.148Z,59.10
2018-05-14T11:17:00.617Z,59.10
2018-05-14T11:19:28.084Z,58.80
2018-05-14T11:21:55.546Z,55.10
2018-05-14T11:24:23.780Z,57.30
2018-05-14T11:26:51.253Z,57.20
2018-05-14T11:29:18.825Z,57.00
2018-05-14T11:31:46.373Z,54.30
2018-05-14T11:34:13.944Z,55.00
2018-05-14T11:36:41.414Z,53.80
2018-05-14T11:39:08.964Z,54.50
2018-05-14T11:41:37.556Z,52.60
2018-05-14T11:44:05.101Z,53.10
2018-05-14T11:46:32.571Z,54.00
2018-05-14T11:49:00.037Z,53.50
2018-05-14T11:51:27.584Z,53.00
2018-05-14T11:53:55.046Z,53.60
2018-05-14T11:56:22.593Z,53.30
2018-05-14T11:58:50.158Z,54.10
2018-05-14T12:01:17.637Z,52.80
2018-05-14T12:03:45.873Z,53.80
2018-05-14T12:06:13.412Z,53.80
2018-05-14T12:08:40.870Z,53.50
2018-05-14T12:11:08.368Z,51.90
2018-05-14T12:13:35.929Z,51.60
2018-05-14T12:16:03.532Z,52.10
2018-05-14T12:18:31.052Z,52.50
2018-05-14T12:20:58.567Z,51.50
2018-05-14T12:23:26.024Z,52.00
2018-05-14T12:25:53.591Z,53.60
2018-05-14T12:28:21.086Z,54.70
2018-05-14T12:30:48.545Z,53.80
2018-05-14T12:33:16.020Z,53.70
2018-05-14T12:35:43.489Z,54.10
2018-05-14T12:38:11.724Z,55.20
2018-05-14T12:40:39.189Z,55.10
2018-05-14T12:43:06.758Z,55.10
2018-05-14T12:45:34.233Z,55.10
2018-05-14T12:48:01.777Z,56.10
2018-05-14T12:50:29.337Z,55.80
2018-05-14T12:52:56.900Z,56.50
2018-05-14T12:55:24.362Z,55.30
2018-05-14T12:57:51.830Z,55.50
2018-05-14T13:00:20.074Z,54.10
2018-05-14T13:02:47.539Z,53.50
2018-05-14T13:05:15.009Z,53.20
2018-05-14T13:07:42.520Z,52.90
2018-05-14T13:10:10.018Z,52.60
2018-05-14T13:12:37.485Z,52.10
2018-05-14T13:15:04.953Z,53.30
2018-05-14T13:17:32.421Z,52.70
2018-05-14T13:20:00.675Z,53.60
2018-05-14T13:22:28.260Z,53.60
2018-05-14T13:24:56.571Z,52.80
2018-05-14T13:27:24.072Z,52.80
2018-05-14T13:29:51.544Z,53.00
2018-05-14T13:32:19.089Z,52.30
2018-05-14T13:34:46.552Z,52.40
2018-05-14T13:37:14.109Z,53.20
2018-05-14T13:39:41.671Z,53.60
2018-05-14T13:42:09.137Z,53.60
2018-05-14T13:44:36.716Z,54.00
2018-05-14T13:47:04.257Z,54.70
2018-05-14T13:49:31.730Z,53.30
2018-05-14T13:51:59.981Z,53.30
2018-05-14T13:54:27.448Z,53.30
2018-05-14T13:56:54.913Z,54.30
2018-05-14T13:59:22.462Z,52.50
2018-05-14T14:01:49.929Z,53.30
2018-05-14T14:04:17.490Z,54.90
2018-05-14T14:06:45.049Z,56.60
2018-05-14T14:09:12.604Z,57.10
2018-05-14T14:11:40.169Z,58.00
2018-05-14T14:14:07.641Z,58.20
2018-05-14T14:16:35.901Z,57.90
2018-05-14T14:19:03.456Z,57.20
2018-05-14T14:21:31.020Z,56.50
2018-05-14T14:23:58.626Z,56.30
2018-05-14T14:26:26.775Z,56.60
2018-05-14T14:28:54.229Z,56.60
2018-05-14T14:31:22.466Z,59.20
2018-05-14T14:33:50.003Z,59.20
2018-05-14T14:36:17.584Z,58.60
2018-05-14T14:38:45.030Z,58.10
2018-05-14T14:41:12.526Z,58.80
2018-05-14T14:43:40.076Z,56.80
2018-05-14T14:46:07.644Z,56.10
2018-05-14T14:48:35.122Z,56.30
2018-05-14T14:51:03.438Z,57.40
2018-05-14T14:53:31.017Z,56.80
2018-05-14T14:55:58.497Z,56.50
2018-05-14T14:58:26.089Z,56.30
2018-05-14T15:00:53.537Z,56.30
2018-05-14T15:03:20.995Z,56.60
2018-05-14T15:05:49.259Z,55.30
2018-05-14T15:08:16.813Z,55.30
2018-05-14T15:10:44.377Z,55.10
2018-05-14T15:13:11.840Z,55.20
2018-05-14T15:15:39.393Z,49.80
2018-05-14T15:18:06.953Z,47.80
2018-05-14T15:20:34.511Z,46.60
2018-05-14T15:23:02.078Z,47.60
2018-05-14T15:25:29.545Z,48.90
2018-05-14T15:27:57.088Z,50.40
2018-05-14T15:30:24.649Z,52.00
2018-05-14T15:32:52.116Z,52.70
2018-05-14T15:35:19.573Z,53.10
2018-05-14T15:37:47.045Z,53.70
2018-05-14T15:40:14.501Z,53.40
2018-05-14T15:42:42.747Z,52.50
2018-05-14T15:45:10.204Z,51.90
2018-05-14T15:47:37.664Z,52.90
2018-05-14T15:50:05.158Z,53.00
2018-05-14T15:52:32.605Z,53.50
2018-05-14T15:55:00.869Z,53.40
2018-05-14T15:57:28.333Z,53.00
2018-05-14T15:59:55.796Z,53.90
2018-05-14T16:02:23.261Z,54.20
2018-05-14T16:04:50.801Z,54.60
2018-05-14T16:07:18.269Z,54.10
2018-05-14T16:09:45.724Z,53.20
2018-05-14T16:12:13.277Z,53.40
2018-05-14T16:14:40.916Z,53.00
2018-05-14T16:17:08.406Z,54.00
2018-05-14T16:19:36.880Z,53.10
2018-05-14T16:22:04.503Z,52.80
2018-05-14T16:24:32.001Z,52.30
2018-05-14T16:26:59.461Z,53.10
2018-05-14T16:29:27.021Z,53.10
2018-05-14T16:31:54.586Z,52.60
2018-05-14T16:34:22.060Z,47.80
2018-05-14T16:36:50.316Z,43.60
2018-05-14T16:39:17.774Z,43.50
2018-05-14T16:41:45.997Z,44.70
2018-05-14T16:44:13.513Z,44.10
2018-05-14T16:46:40.972Z,43.30
2018-05-14T16:49:08.436Z,43.80
2018-05-14T16:51:35.981Z,43.70
2018-05-14T16:54:03.440Z,43.30
2018-05-14T16:56:30.901Z,44.40
2018-05-14T16:58:58.361Z,44.40
2018-05-14T17:01:25.827Z,43.90
2018-05-14T17:03:53.377Z,45.10
2018-05-14T17:06:20.849Z,44.50
2018-05-14T17:08:48.307Z,44.00
2018-05-14T17:11:15.760Z,44.60
2018-05-14T17:13:43.228Z,45.30
2018-05-14T17:16:10.692Z,45.20
2018-05-14T17:18:38.149Z,45.10
2018-05-14T17:21:06.374Z,46.10
2018-05-14T17:23:33.861Z,46.10
2018-05-14T17:26:01.426Z,45.50
2018-05-14T17:28:29.648Z,45.30
2018-05-14T17:30:57.157Z,45.30
2018-05-14T17:33:24.617Z,46.00
2018-05-14T17:35:52.172Z,46.50
2018-05-14T17:38:19.741Z,45.40
2018-05-14T17:40:47.301Z,45.70
2018-05-14T17:43:14.857Z,46.00
2018-05-14T17:45:42.317Z,46.80
2018-05-14T17:48:09.777Z,45.80
2018-05-14T17:50:37.337Z,46.70
2018-05-14T17:53:04.889Z,46.60
2018-05-14T17:55:32.456Z,46.80
2018-05-14T17:58:00.013Z,47.10
2018-05-14T18:00:27.477Z,46.30
2018-05-14T18:02:54.936Z,46.20
2018-05-14T18:05:22.405Z,47.00
2018-05-14T18:07:49.865Z,47.80
2018-05-14T18:10:18.093Z,47.10
2018-05-14T18:12:45.550Z,47.10
2018-05-14T18:15:13.036Z,47.50
2018-05-14T18:17:40.631Z,47.10
2018-05-14T18:20:13.668Z,47.20
2018-05-14T18:22:41.170Z,47.40
2018-05-14T18:25:14.237Z,48.00
2018-05-14T18:27:47.476Z,47.90
2018-05-14T18:30:14.941Z,48.50
2018-05-14T18:32:48.168Z,49.10
2018-05-14T18:35:19.969Z,49.40
2018-05-14T18:37:48.196Z,49.60
2018-05-14T18:40:15.738Z,49.50
2018-05-14T18:42:43.237Z,49.20
2018-05-14T18:45:10.692Z,49.70
2018-05-14T18:47:38.256Z,49.80
2018-05-14T18:50:05.821Z,50.00
2018-05-14T18:52:33.277Z,50.10
2018-05-14T18:55:00.742Z,49.80
2018-05-14T18:57:28.293Z,50.10
2018-05-14T18:59:55.853Z,50.60
2018-05-14T19:02:23.334Z,50.30
2018-05-14T19:04:51.573Z,51.00
2018-05-14T19:07:19.035Z,50.90
2018-05-14T19:09:46.614Z,51.70
2018-05-14T19:12:14.166Z,51.80
2018-05-14T19:14:41.625Z,51.80
2018-05-14T19:17:14.875Z,51.90
2018-05-14T19:19:42.376Z,52.10
2018-05-14T19:22:09.838Z,52.20
2018-05-14T19:24:37.397Z,52.40
2018-05-14T19:27:04.862Z,52.70
2018-05-14T19:29:34.113Z,52.80
2018-05-14T19:32:01.577Z,53.20
2018-05-14T19:34:34.854Z,53.20
2018-05-14T19:37:02.324Z,53.30
2018-05-14T19:39:35.368Z,53.70
2018-05-14T19:42:03.489Z,53.40
2018-05-14T19:44:30.969Z,54.20
2018-05-14T19:46:58.451Z,53.60
2018-05-14T19:49:26.043Z,53.80
2018-05-14T19:51:53.478Z,54.00
2018-05-14T19:54:20.940Z,54.70
2018-05-14T19:56:48.398Z,59.30
2018-05-14T19:59:15.853Z,63.90
2018-05-14T20:01:43.322Z,65.50
2018-05-14T20:04:11.548Z,68.70
2018-05-14T20:06:39.041Z,68.70
2018-05-14T20:09:06.592Z,69.30
2018-05-14T20:11:34.148Z,70.30
2018-05-14T20:14:01.714Z,71.00
2018-05-14T20:16:29.272Z,71.50
2018-05-14T20:18:56.833Z,72.00
2018-05-14T20:21:24.300Z,72.60
2018-05-14T20:23:52.528Z,74.00
2018-05-14T20:26:20.027Z,74.00
2018-05-14T20:28:47.508Z,74.20
2018-05-14T20:31:15.774Z,74.90
2018-05-14T20:33:43.994Z,75.20
2018-05-14T20:36:11.500Z,75.20
2018-05-14T20:38:39.769Z,75.70
2018-05-14T20:41:07.240Z,75.70
2018-05-14T20:43:34.705Z,76.10
2018-05-14T20:46:02.164Z,76.60
2018-05-14T20:48:29.619Z,77.00
2018-05-14T20:50:57.171Z,77.40
2018-05-14T20:53:25.441Z,77.90
2018-05-14T20:55:53.009Z,77.80
2018-05-14T20:58:20.472Z,77.90
2018-05-14T21:00:48.030Z,77.40
2018-05-14T21:03:15.480Z,78.10
2018-05-14T21:05:42.948Z,78.00
2018-05-14T21:08:10.410Z,78.10
2018-05-14T21:10:37.869Z,78.20
2018-05-14T21:13:05.331Z,78.10
2018-05-14T21:15:32.785Z,78.40
2018-05-14T21:18:00.241Z,78.80
2018-05-14T21:20:27.788Z,78.70
2018-05-14T21:22:55.348Z,79.80
2018-05-14T21:25:22.819Z,79.10
2018-05-14T21:27:50.365Z,79.40
2018-05-14T21:30:17.884Z,79.90
2018-05-14T21:32:45.381Z,80.20
2018-05-14T21:35:12.943Z,80.60
2018-05-14T21:37:40.487Z,80.80
2018-05-14T21:40:07.873Z,81.10
2018-05-14T21:42:35.333Z,81.10
2018-05-14T21:45:02.801Z,81.10
2018-05-14T21:47:31.057Z,81.30
2018-05-14T21:49:59.283Z,81.30
2018-05-14T21:52:26.746Z,81.40
2018-05-14T21:54:54.206Z,81.50
2018-05-14T21:57:21.765Z,81.60
2018-05-14T21:59:49.228Z,81.70
2018-05-14T22:02:16.720Z,81.70
2018-05-14T22:04:44.318Z,81.70
2018-05-14T22:07:11.844Z,81.80
2018-05-14T22:09:39.405Z,82.00
2018-05-14T22:12:06.873Z,82.10
2018-05-14T22:14:34.336Z,82.50
2018-05-14T22:17:01.877Z,83.00
2018-05-14T22:19:29.441Z,82.40
2018-05-14T22:21:56.907Z,82.40
2018-05-14T22:24:24.369Z,82.30
2018-05-14T22:26:51.917Z,82.50
2018-05-14T22:29:19.385Z,82.70
2018-05-14T22:31:46.933Z,82.50
2018-05-14T22:34:14.400Z,82.60
2018-05-14T22:36:41.961Z,83.00
2018-05-14T22:39:10.229Z,83.00
2018-05-14T22:41:37.750Z,82.90
2018-05-14T22:44:05.213Z,83.20
2018-05-14T22:46:32.709Z,83.20
2018-05-14T22:49:00.269Z,83.40
2018-05-14T22:51:27.740Z,83.40
2018-05-14T22:53:55.209Z,83.20
2018-05-14T22:56:23.441Z,83.70
2018-05-14T22:58:50.917Z,84.40
2018-05-14T23:01:18.481Z,83.90
2018-05-14T23:03:45.956Z,83.70
2018-05-14T23:06:13.420Z,84.30
2018-05-14T23:08:41.673Z,84.20
2018-05-14T23:11:09.144Z,84.10
2018-05-14T23:13:36.605Z,84.40
2018-05-14T23:16:04.157Z,84.40
2018-05-14T23:18:31.620Z,84.90
2018-05-14T23:20:59.125Z,85.10
2018-05-14T23:23:26.629Z,85.30
2018-05-14T23:25:54.189Z,85.30
2018-05-14T23:28:21.661Z,85.30
2018-05-14T23:30:49.201Z,85.70
2018-05-14T23:33:16.662Z,86.00
2018-05-14T23:35:44.124Z,86.00
2018-05-14T23:38:12.393Z,86.30
2018-05-14T23:40:39.859Z,86.30
2018-05-14T23:43:07.419Z,86.30
2018-05-14T23:45:34.885Z,86.20
2018-05-14T23:48:02.437Z,86.30
2018-05-14T23:50:29.997Z,86.10
2018-05-14T23:52:57.467Z,86.60
2018-05-14T23:55:25.017Z,87.00
2018-05-14T23:57:52.576Z,86.80
